16X weather

Propwash Airport
Justin, Texas, United States

Public forecast

Using degrees Fahrenheit for public forecast. Weather courtesy of forecast.io.

METAR (pilot weather report)

Closest report is Fort Worth Alliance Airport, 5.9 nm (11.0 km) SSE. Retrieved 2019/07/16 06:53 UTC (46 minutes ago):

KAFW 160653Z 17007KT 10SM CLR 28/23 A2989 RMK AO2 SLP105 T02780228

TAF (pilot weather forecast)

Closest forecast is Fort Worth Alliance Airport, 5.9 nm (11.0 km) SSE. Retrieved 2019/07/16 06:22 UTC (1 hour ago):

TAF KAFW 160520Z 1606/1706 17006KT P6SM FEW050 FM161500 19015KT P6SM FEW040